Time;durP1;ratioP1;P1;durP2;ratioP2;P2;SDS_P1;SDS_P2;PMS_P1;PMS_P2;Temp;Humidity;BMP_temperature;BMP_pressure;BME280_temperature;BME280_humidity;BME280_pressure;Samples;Min_cycle;Max_cycle;Signal;HPM_P1;HPM_P2
2023/11/02 00:01:53;;;;;;;33.00;17.30;;;5.90;99.90;;;;;;4769045;30;20278;-83
2023/11/02 00:04:27;;;;;;;29.40;16.80;;;5.90;99.90;;;;;;4768809;30;20216;-82
2023/11/02 00:06:58;;;;;;;30.77;16.77;;;5.60;99.90;;;;;;4768241;30;20185;-82
2023/11/02 00:09:39;;;;;;;29.20;16.20;;;5.80;99.90;;;;;;4768445;30;20204;-83
2023/11/02 00:12:11;;;;;;;27.67;15.80;;;5.90;99.90;;;;;;4767898;30;20303;-82
2023/11/02 00:14:52;;;;;;;29.67;16.97;;;5.90;99.90;;;;;;4775679;30;20242;-83
2023/11/02 00:17:35;;;;;;;33.50;17.07;;;5.80;99.90;;;;;;4800420;29;20241;-83
2023/11/02 00:20:08;;;;;;;29.13;16.53;;;5.70;99.90;;;;;;4801386;29;20307;-82
2023/11/02 00:22:45;;;;;;;29.20;16.77;;;5.80;99.90;;;;;;4800950;29;20274;-81
2023/11/02 00:25:57;;;;;;;26.63;15.13;;;5.80;99.90;;;;;;4787173;29;20199;-79
2023/11/02 00:28:39;;;;;;;31.47;16.70;;;5.70;99.90;;;;;;4800894;29;20208;-83
2023/11/02 00:31:17;;;;;;;30.20;16.07;;;5.80;99.90;;;;;;4800121;29;20590;-81
2023/11/02 00:33:48;;;;;;;26.53;15.07;;;5.70;99.90;;;;;;4800769;29;20262;-82
2023/11/02 00:36:20;;;;;;;27.60;15.63;;;5.70;99.90;;;;;;4800979;29;20636;-81
2023/11/02 00:38:51;;;;;;;25.10;15.30;;;5.70;99.90;;;;;;4785801;30;20624;-81
2023/11/02 00:41:29;;;;;;;26.30;15.63;;;6.00;99.90;;;;;;4786120;29;20205;-81
2023/11/02 00:44:06;;;;;;;25.17;14.53;;;5.60;99.90;;;;;;4786151;30;20322;-80
2023/11/02 00:46:37;;;;;;;27.73;15.27;;;5.60;99.90;;;;;;4800601;29;20246;-81
2023/11/02 00:49:27;;;;;;;30.23;16.00;;;5.90;99.90;;;;;;4786581;30;20227;-80
2023/11/02 00:52:00;;;;;;;25.93;14.77;;;5.60;99.90;;;;;;4785638;29;20292;-79
2023/11/02 00:54:44;;;;;;;27.10;15.73;;;5.90;99.90;;;;;;4787101;29;20272;-81
2023/11/02 00:57:16;;;;;;;28.87;16.00;;;5.70;99.90;;;;;;4787051;29;20216;-80
2023/11/02 00:59:51;;;;;;;26.67;15.60;;;5.60;99.90;;;;;;4786588;29;20557;-82
2023/11/02 01:02:28;;;;;;;28.20;15.50;;;5.80;99.90;;;;;;4786703;29;20214;-82
2023/11/02 01:05:00;;;;;;;26.90;15.73;;;5.70;99.90;;;;;;4800446;29;20239;-81
2023/11/02 01:07:31;;;;;;;28.90;15.67;;;5.60;99.90;;;;;;4800101;29;20210;-82
2023/11/02 01:10:08;;;;;;;27.50;15.83;;;5.60;99.90;;;;;;4786883;29;20265;-81
2023/11/02 01:12:39;;;;;;;27.07;15.53;;;5.70;99.90;;;;;;4800229;29;20749;-82
2023/11/02 01:15:21;;;;;;;27.53;15.97;;;5.70;99.90;;;;;;4785046;30;20266;-82
2023/11/02 01:17:54;;;;;;;34.90;17.60;;;5.70;99.90;;;;;;4771338;30;20257;-82
2023/11/02 01:20:43;;;;;;;29.40;16.13;;;5.60;99.90;;;;;;4786032;30;20199;-82
2023/11/02 01:23:17;;;;;;;26.50;15.70;;;5.80;99.90;;;;;;4800025;29;20182;-82
2023/11/02 01:25:49;;;;;;;30.37;17.20;;;5.80;99.90;;;;;;4800796;29;20679;-82
2023/11/02 01:28:51;;;;;;;26.50;15.67;;;5.90;99.90;;;;;;4784868;29;20210;-83
2023/11/02 01:31:22;;;;;;;25.90;15.27;;;5.90;99.90;;;;;;4785450;30;20220;-83
2023/11/02 01:33:55;;;;;;;28.17;15.43;;;5.90;99.90;;;;;;4785336;30;20235;-82
2023/11/02 01:36:30;;;;;;;27.57;15.47;;;6.10;99.90;;;;;;4799764;29;20294;-82
2023/11/02 01:39:09;;;;;;;29.00;15.43;;;6.00;99.90;;;;;;4784916;30;20234;-80
2023/11/02 01:42:03;;;;;;;29.73;16.00;;;5.90;99.90;;;;;;4799862;29;20208;-82
2023/11/02 01:44:44;;;;;;;32.87;15.70;;;6.00;99.90;;;;;;4785613;30;20672;-81
2023/11/02 01:47:26;;;;;;;25.43;14.83;;;6.10;99.90;;;;;;4785340;30;20211;-82
2023/11/02 01:50:04;;;;;;;26.07;15.60;;;6.00;99.90;;;;;;4785571;30;20238;-81
2023/11/02 01:53:06;;;;;;;26.83;15.67;;;6.10;99.90;;;;;;4799644;29;20194;-82
2023/11/02 01:55:59;;;;;;;26.17;14.80;;;6.10;99.90;;;;;;4765672;30;20578;-82
2023/11/02 01:58:36;;;;;;;25.90;15.17;;;6.10;99.90;;;;;;4750726;30;20747;-82
2023/11/02 02:01:26;;;;;;;26.17;14.67;;;6.30;99.90;;;;;;4765747;30;20298;-82
2023/11/02 02:04:15;;;;;;;31.63;15.43;;;6.20;99.90;;;;;;4767440;30;20233;-82
2023/11/02 02:07:06;;;;;;;23.03;14.17;;;6.10;99.90;;;;;;4768973;30;20214;-82
2023/11/02 02:09:57;;;;;;;34.33;16.07;;;6.20;99.90;;;;;;4769366;30;20261;-79
2023/11/02 02:12:33;;;;;;;24.30;14.00;;;6.20;99.90;;;;;;4754176;30;20593;-82
2023/11/02 02:15:24;;;;;;;24.53;14.63;;;6.20;99.90;;;;;;4768789;30;20235;-82
2023/11/02 02:18:04;;;;;;;28.10;14.43;;;6.20;99.90;;;;;;4769178;30;20257;-82
2023/11/02 02:20:37;;;;;;;21.87;12.70;;;6.30;99.90;;;;;;4754290;30;20300;-82
2023/11/02 02:23:39;;;;;;;24.43;13.67;;;6.60;99.90;;;;;;4768742;30;20704;-82
2023/11/02 02:26:27;;;;;;;22.90;13.50;;;6.40;99.90;;;;;;4769015;30;20220;-82
2023/11/02 02:29:15;;;;;;;22.43;13.40;;;6.40;99.90;;;;;;4769330;30;20194;-81
2023/11/02 02:32:27;;;;;;;21.60;12.83;;;6.50;99.90;;;;;;4771996;30;20219;-81
2023/11/02 02:35:02;;;;;;;23.03;13.17;;;6.40;99.90;;;;;;4787827;30;20198;-82
2023/11/02 02:37:43;;;;;;;24.50;13.47;;;6.50;99.90;;;;;;4802199;29;20744;-81
2023/11/02 02:40:25;;;;;;;21.67;12.67;;;6.50;99.90;;;;;;4801892;29;20219;-79
2023/11/02 02:43:12;;;;;;;23.20;13.10;;;6.60;99.90;;;;;;4802677;29;20207;-80
2023/11/02 02:45:48;;;;;;;24.77;13.03;;;6.20;99.90;;;;;;4787695;30;20733;-82
2023/11/02 02:48:22;;;;;;;25.13;13.37;;;6.20;99.90;;;;;;4787517;30;20695;-82
2023/11/02 02:50:57;;;;;;;22.70;12.93;;;6.40;99.90;;;;;;4788137;29;20207;-83
2023/11/02 02:53:39;;;;;;;21.07;13.17;;;6.40;99.90;;;;;;4787879;30;20293;-82
2023/11/02 02:56:25;;;;;;;22.60;12.97;;;6.40;99.90;;;;;;4802360;29;20208;-83
2023/11/02 02:59:11;;;;;;;27.63;13.87;;;6.40;99.90;;;;;;4802851;29;20239;-83
2023/11/02 03:01:58;;;;;;;22.77;12.53;;;6.40;99.90;;;;;;4802763;29;20260;-82
2023/11/02 03:04:37;;;;;;;22.67;13.30;;;6.50;99.90;;;;;;4801857;29;20307;-81
2023/11/02 03:07:13;;;;;;;20.90;12.53;;;6.50;99.90;;;;;;4786578;30;20228;-82
2023/11/02 03:09:46;;;;;;;21.80;11.47;;;6.50;99.90;;;;;;4787250;30;20203;-81
2023/11/02 03:12:34;;;;;;;29.10;12.63;;;6.40;99.90;;;;;;4787416;30;20281;-80
2023/11/02 03:15:13;;;;;;;20.30;11.97;;;6.40;99.90;;;;;;4801466;29;20270;-81
2023/11/02 03:18:09;;;;;;;22.13;12.07;;;6.40;99.90;;;;;;4786824;30;20231;-82
2023/11/02 03:20:48;;;;;;;20.70;11.73;;;6.40;99.90;;;;;;4802153;29;20609;-83
2023/11/02 03:23:57;;;;;;;19.67;11.40;;;6.50;99.90;;;;;;4801652;29;20207;-83
2023/11/02 03:26:39;;;;;;;20.00;11.20;;;6.50;99.90;;;;;;4800935;29;20252;-82
2023/11/02 03:29:43;;;;;;;19.87;11.03;;;6.50;99.90;;;;;;4801601;29;20223;-82
2023/11/02 03:32:40;;;;;;;19.40;11.67;;;6.40;99.90;;;;;;4801497;29;20265;-82
2023/11/02 03:35:38;;;;;;;19.40;11.00;;;6.50;99.90;;;;;;4801077;29;20203;-82
2023/11/02 03:38:26;;;;;;;18.80;10.50;;;6.50;99.90;;;;;;4787512;29;20239;-80
2023/11/02 03:41:00;;;;;;;16.33;10.43;;;6.50;99.90;;;;;;4801911;29;20288;-80
2023/11/02 03:44:00;;;;;;;19.63;10.90;;;6.50;99.90;;;;;;4767511;30;20238;-82
2023/11/02 03:46:40;;;;;;;21.63;11.57;;;6.40;99.90;;;;;;4752113;30;20207;-78
2023/11/02 03:49:29;;;;;;;18.47;10.87;;;6.40;99.90;;;;;;4738651;30;20231;-81
2023/11/02 03:52:20;;;;;;;19.53;11.43;;;6.40;99.90;;;;;;4752671;30;20224;-80
2023/11/02 03:55:11;;;;;;;19.20;11.20;;;6.40;99.90;;;;;;4738831;30;20220;-82
2023/11/02 03:58:20;;;;;;;19.87;11.50;;;6.20;99.90;;;;;;4767549;30;20250;-82
2023/11/02 04:01:11;;;;;;;19.00;11.60;;;6.40;99.90;;;;;;4755617;30;20300;-81
2023/11/02 04:03:48;;;;;;;20.20;11.60;;;6.40;99.90;;;;;;4787384;29;20233;-82
2023/11/02 04:06:25;;;;;;;22.10;11.87;;;6.50;99.90;;;;;;4800872;29;20202;-82
2023/11/02 04:09:00;;;;;;;19.90;11.67;;;6.50;99.90;;;;;;4787052;29;20222;-82
2023/11/02 04:12:12;;;;;;;22.40;12.20;;;6.60;99.90;;;;;;4786614;30;20217;-82
2023/11/02 04:14:44;;;;;;;21.97;11.73;;;6.40;99.90;;;;;;4783460;30;20240;-82
2023/11/02 04:17:12;;;;;;;20.97;13.10;;;6.40;99.90;;;;;;4800767;29;20207;-80
2023/11/02 04:19:46;;;;;;;21.53;12.47;;;6.40;99.90;;;;;;4801077;29;20232;-82
2023/11/02 04:22:19;;;;;;;21.60;12.43;;;6.30;99.90;;;;;;4800101;29;20183;-82
2023/11/02 04:24:51;;;;;;;20.47;12.13;;;6.30;99.90;;;;;;4785826;30;20212;-83
2023/11/02 04:27:20;;;;;;;23.50;12.83;;;6.20;99.90;;;;;;4785785;29;20207;-82
2023/11/02 04:29:51;;;;;;;23.97;13.27;;;6.30;99.90;;;;;;4787013;29;20195;-81
2023/11/02 04:32:28;;;;;;;27.13;13.33;;;6.20;99.90;;;;;;4801120;29;20220;-82
2023/11/02 04:35:08;;;;;;;25.07;12.97;;;6.20;99.90;;;;;;4800045;29;20304;-83
2023/11/02 04:37:39;;;;;;;24.80;13.70;;;5.90;99.90;;;;;;4785401;29;20677;-83
2023/11/02 04:40:11;;;;;;;24.40;13.50;;;6.00;99.90;;;;;;4800251;29;20203;-82
2023/11/02 04:42:44;;;;;;;21.73;12.97;;;6.10;99.90;;;;;;4786009;30;20286;-82
2023/11/02 04:45:17;;;;;;;24.60;13.03;;;6.10;99.90;;;;;;4785592;29;20215;-83
2023/11/02 04:47:54;;;;;;;23.27;13.13;;;6.10;99.90;;;;;;4799554;29;20330;-83
2023/11/02 04:50:47;;;;;;;27.60;13.80;;;6.10;99.90;;;;;;4797444;29;20215;-80
2023/11/02 04:53:30;;;;;;;25.13;13.03;;;6.10;99.90;;;;;;4799918;29;20291;-80
2023/11/02 04:56:09;;;;;;;23.53;13.13;;;6.00;99.90;;;;;;4800259;29;20267;-81
2023/11/02 04:59:06;;;;;;;24.37;12.50;;;6.00;99.90;;;;;;4792591;29;20330;-83
2023/11/02 05:01:53;;;;;;;23.17;13.23;;;6.00;99.90;;;;;;4799479;29;20212;-82
2023/11/02 05:04:42;;;;;;;26.97;13.20;;;6.00;99.90;;;;;;4785024;30;20225;-83
2023/11/02 05:07:16;;;;;;;26.90;13.83;;;6.10;99.90;;;;;;4785244;29;20216;-81
2023/11/02 05:09:45;;;;;;;26.50;14.20;;;6.10;99.90;;;;;;4789562;30;20194;-78
2023/11/02 05:12:13;;;;;;;23.67;13.63;;;6.10;99.90;;;;;;4786131;30;20235;-81
2023/11/02 05:14:44;;;;;;;26.37;13.97;;;5.80;99.90;;;;;;4786250;29;20700;-81
2023/11/02 05:17:12;;;;;;;34.03;15.10;;;6.10;99.90;;;;;;4785461;29;20204;-81
2023/11/02 05:19:48;;;;;;;27.13;13.13;;;6.10;99.90;;;;;;4784944;30;20239;-79
2023/11/02 05:22:24;;;;;;;23.07;12.77;;;6.10;99.90;;;;;;4800043;29;20238;-82
2023/11/02 05:25:14;;;;;;;28.80;13.90;;;6.00;99.90;;;;;;4797765;29;20216;-82
2023/11/02 05:27:48;;;;;;;23.30;13.57;;;6.10;99.90;;;;;;4800632;29;20215;-81
2023/11/02 05:30:16;;;;;;;22.43;13.43;;;6.10;99.90;;;;;;4800514;29;20217;-81
2023/11/02 05:32:46;;;;;;;23.57;12.97;;;6.10;99.90;;;;;;4799849;29;20279;-80
2023/11/02 05:35:16;;;;;;;26.50;13.40;;;6.10;99.90;;;;;;4800222;29;20208;-80
2023/11/02 05:37:45;;;;;;;26.87;13.23;;;6.00;99.90;;;;;;4786482;29;20212;-80
2023/11/02 05:40:19;;;;;;;25.87;14.33;;;6.20;99.90;;;;;;4790391;29;20559;-81
2023/11/02 05:42:48;;;;;;;25.27;13.60;;;6.20;99.90;;;;;;4789088;29;20282;-79
2023/11/02 05:45:16;;;;;;;26.63;13.60;;;6.40;99.90;;;;;;4789808;29;20193;-82
2023/11/02 05:48:05;;;;;;;24.60;13.43;;;6.20;99.90;;;;;;4801627;29;20233;-82
2023/11/02 05:50:58;;;;;;;41.83;15.97;;;6.20;99.90;;;;;;4807506;29;20266;-81
2023/11/02 05:53:28;;;;;;;27.40;12.70;;;6.50;99.90;;;;;;4806949;29;20222;-81
2023/11/02 05:55:57;;;;;;;26.63;13.57;;;6.10;99.90;;;;;;4789702;30;20203;-82
2023/11/02 05:58:29;;;;;;;23.53;13.13;;;6.40;99.90;;;;;;4789946;29;20235;-82
2023/11/02 06:01:23;;;;;;;24.90;13.63;;;6.40;99.90;;;;;;4787937;30;20238;-82
2023/11/02 06:04:56;;;;;;;;;;;;;;;;;;;;;
2023/11/02 06:07:54;;;;;;;23.50;12.57;;;6.30;99.90;;;;;;4801749;29;20211;-82
2023/11/02 06:10:36;;;;;;;26.13;13.60;;;6.30;99.90;;;;;;4802889;29;20215;-81
2023/11/02 06:17:55;;;;;;;25.77;13.07;;;5.90;99.90;;;;;;4732035;30;20231;-82
2023/11/02 06:21:23;;;;;;;;;;;;;;;;;;;;;
2023/11/02 06:47:39;;;;;;;21.93;12.53;;;6.40;99.90;;;;;;5878164;23;20183;31
2023/11/02 06:50:17;;;;;;;28.87;13.17;;;6.30;99.90;;;;;;4781597;29;20219;-83
2023/11/02 06:53:28;;;;;;;23.67;13.43;;;6.60;99.90;;;;;;4782514;30;20619;-83
2023/11/02 06:59:21;;;;;;;19.17;12.13;;;6.80;99.90;;;;;;4766727;30;20238;-80
2023/11/02 07:01:53;;;;;;;21.27;12.70;;;6.80;99.90;;;;;;4752412;30;20211;-83
2023/11/02 07:27:49;;;;;;;19.23;10.80;;;7.50;99.90;;;;;;4894317;23;20249;-81
2023/11/02 07:30:27;;;;;;;18.77;11.37;;;7.70;99.90;;;;;;4844816;29;20213;-80
2023/11/02 07:33:04;;;;;;;20.43;11.43;;;7.70;99.90;;;;;;4828810;29;20281;-80
2023/11/02 08:56:21;;;;;;;8.70;5.10;;;13.10;99.90;;;;;;5677585;24;20398;-80
2023/11/02 08:58:51;;;;;;;11.10;5.20;;;13.20;99.90;;;;;;4734707;30;20291;-81
2023/11/02 09:01:29;;;;;;;11.63;5.37;;;13.60;99.90;;;;;;4749611;30;20648;-80
2023/11/02 09:03:57;;;;;;;7.67;5.07;;;13.80;99.90;;;;;;4734573;30;20248;-79
2023/11/02 09:26:15;;;;;;;6.13;3.80;;;14.50;99.90;;;;;;5625705;22;24605647;-85
2023/11/02 09:39:19;;;;;;;6.73;4.13;;;15.10;99.90;;;;;;6234278;22;20205;-82
2023/11/02 09:43:27;;;;;;;8.93;3.97;;;15.40;99.90;;;;;;6112629;23;20175;-83
2023/11/02 09:51:11;;;;;;;8.53;3.60;;;16.00;99.90;;;;;;5918936;24;20177;-82
2023/11/02 09:54:35;;;;;;;12.00;4.00;;;16.00;99.90;;;;;;5906242;24;20158;-86
2023/11/02 09:57:06;;;;;;;5.17;3.50;;;16.10;99.90;;;;;;5883643;24;20232;-82
2023/11/02 09:59:51;;;;;;;4.23;3.20;;;16.10;99.90;;;;;;5864599;24;20166;-82
2023/11/02 10:02:52;;;;;;;6.83;3.43;;;16.00;99.90;;;;;;5920054;24;20186;-80
2023/11/02 10:05:48;;;;;;;4.37;3.10;;;16.10;99.90;;;;;;5903014;24;20231;-81
2023/11/02 10:08:39;;;;;;;4.70;3.10;;;16.20;99.90;;;;;;5922163;24;20615;-82
2023/11/02 10:11:24;;;;;;;5.43;3.00;;;16.30;99.90;;;;;;5902166;24;20177;-81
2023/11/02 10:14:09;;;;;;;5.83;3.43;;;16.20;99.90;;;;;;5982796;24;20546;-82
2023/11/02 10:17:00;;;;;;;5.67;3.17;;;16.00;99.90;;;;;;6007376;23;20175;-86
2023/11/02 10:19:32;;;;;;;6.20;3.53;;;15.80;99.90;;;;;;5970074;23;20196;-82
2023/11/02 10:22:16;;;;;;;5.20;3.20;;;15.70;99.90;;;;;;5962771;23;20510;-88
2023/11/02 10:24:51;;;;;;;4.47;3.10;;;15.70;99.90;;;;;;5982605;23;20239;-81
2023/11/02 10:27:20;;;;;;;5.97;3.50;;;15.50;99.90;;;;;;6131315;23;20163;-84
2023/11/02 10:29:52;;;;;;;5.13;3.30;;;15.10;99.90;;;;;;6215057;23;20197;-79
2023/11/02 10:32:31;;;;;;;4.37;3.00;;;15.00;99.90;;;;;;6214791;23;20238;-86
2023/11/02 10:35:16;;;;;;;5.67;3.47;;;15.00;99.90;;;;;;6067330;23;20171;-81
2023/11/02 10:37:56;;;;;;;5.67;3.50;;;15.40;99.90;;;;;;6072151;23;20280;-82
2023/11/02 10:40:54;;;;;;;7.90;3.83;;;15.20;99.90;;;;;;6117631;23;20243;-80
2023/11/02 10:43:27;;;;;;;5.30;3.47;;;15.40;99.90;;;;;;6098382;23;20654;-80
2023/11/02 10:46:04;;;;;;;8.83;3.80;;;15.40;99.90;;;;;;6123034;23;20203;-80
2023/11/02 10:49:07;;;;;;;5.53;3.30;;;15.50;99.90;;;;;;6096714;23;20201;-81
2023/11/02 10:51:43;;;;;;;5.63;3.20;;;15.50;99.90;;;;;;6098527;23;20403;-82
2023/11/02 10:54:47;;;;;;;5.60;3.40;;;15.10;99.90;;;;;;6122253;23;20166;-82
2023/11/02 10:57:30;;;;;;;8.23;3.10;;;15.00;99.90;;;;;;6119109;23;20187;-83
2023/11/02 10:59:59;;;;;;;6.67;3.03;;;14.70;99.90;;;;;;6121732;23;20171;-84
2023/11/02 11:02:52;;;;;;;6.70;3.53;;;14.70;99.90;;;;;;6119752;23;20201;-83
2023/11/02 11:05:31;;;;;;;4.30;2.90;;;14.60;99.90;;;;;;6097826;23;20279;-82
2023/11/02 11:08:10;;;;;;;6.13;3.40;;;14.50;99.90;;;;;;6097659;23;20275;-83
2023/11/02 11:11:06;;;;;;;6.03;3.20;;;14.30;99.90;;;;;;6100509;23;20507;-83
2023/11/02 11:14:08;;;;;;;5.23;3.10;;;14.40;99.90;;;;;;6185676;23;20212;-83
2023/11/02 11:17:14;;;;;;;5.10;3.10;;;14.40;99.90;;;;;;6210129;23;20190;-82
2023/11/02 11:20:15;;;;;;;7.63;2.80;;;14.40;99.90;;;;;;6212839;23;20156;-82
2023/11/02 11:22:58;;;;;;;5.63;2.80;;;14.80;99.90;;;;;;6187605;23;20274;-82
2023/11/02 11:26:30;;;;;;;5.40;2.70;;;15.10;99.90;;;;;;6187895;23;20177;-84
2023/11/02 11:34:22;;;;;;;;;;;;;;;;;;;;;
2023/11/02 11:38:39;;;;;;;4.47;2.40;;;17.20;99.90;;;;;;5868918;24;20189;-84
2023/11/02 13:08:39;;;;;;;6.13;1.90;;;18.00;99.90;;;;;;6172134;22;20708;-81
2023/11/02 13:30:17;;;;;;;4.27;1.90;;;17.90;99.90;;;;;;6189693;23;20181;-79
2023/11/02 14:07:52;;;;;;;3.73;1.90;;;15.60;99.90;;;;;;6210684;22;20267;-81
2023/11/02 14:10:47;;;;;;;3.23;1.90;;;15.50;99.90;;;;;;6239593;22;20161;-82
2023/11/02 14:13:50;;;;;;;5.33;2.10;;;15.40;99.90;;;;;;6243600;22;20596;-87
2023/11/02 14:17:15;;;;;;;11.90;2.40;;;15.20;99.90;;;;;;6223836;22;20524;-86
2023/11/02 14:31:39;;;;;;;3.03;1.80;;;14.70;99.90;;;;;;6204512;22;20211;-78
2023/11/02 14:39:07;;;;;;;4.30;1.90;;;14.60;99.90;;;;;;6171783;22;20179;-82
2023/11/02 14:42:16;;;;;;;4.33;1.90;;;14.30;99.90;;;;;;6239316;22;20274;-80
2023/11/02 15:16:53;;;;;;;3.10;1.80;;;13.20;99.90;;;;;;6201276;22;20384;-77
2023/11/02 15:19:31;;;;;;;3.87;2.00;;;13.20;99.90;;;;;;6177207;23;20279;-77
2023/11/02 15:38:59;;;;;;;4.47;2.13;;;13.00;99.90;;;;;;6299635;22;20512;-78
2023/11/02 15:49:10;;;;;;;5.13;2.27;;;13.10;99.90;;;;;;6185611;23;20211;-87
2023/11/02 15:51:48;;;;;;;4.30;1.90;;;12.80;99.90;;;;;;6283305;22;20183;-80
2023/11/02 15:54:53;;;;;;;3.93;2.00;;;12.60;99.90;;;;;;6176691;22;20167;-85
2023/11/02 15:57:34;;;;;;;3.93;2.10;;;12.70;99.90;;;;;;6151697;22;20199;-80
2023/11/02 16:00:06;;;;;;;4.73;2.10;;;12.70;99.90;;;;;;6171617;22;20242;-77
2023/11/02 16:02:37;;;;;;;5.23;2.17;;;12.60;99.90;;;;;;6175779;22;20191;-78
2023/11/02 16:05:06;;;;;;;4.53;2.20;;;12.60;99.90;;;;;;6177634;22;20538;-79
2023/11/02 16:07:36;;;;;;;4.43;2.30;;;12.60;99.90;;;;;;6176174;23;20163;-79
2023/11/02 16:10:07;;;;;;;6.13;2.37;;;12.30;99.90;;;;;;6173810;23;20166;-79
2023/11/02 16:12:44;;;;;;;6.67;2.30;;;12.40;99.90;;;;;;6179033;22;20618;-85
2023/11/02 16:15:28;;;;;;;5.20;2.27;;;12.40;99.90;;;;;;6255333;22;20171;-84
2023/11/02 16:18:05;;;;;;;6.50;2.50;;;12.30;99.90;;;;;;6171433;22;20195;-84
2023/11/02 16:21:38;;;;;;;3.80;2.47;;;12.30;99.90;;;;;;6271761;22;20338;-79
2023/11/02 16:25:23;;;;;;;5.47;2.57;;;12.20;99.90;;;;;;6273511;22;20185;-84
2023/11/02 16:28:36;;;;;;;5.50;2.37;;;12.20;99.90;;;;;;6271724;22;20179;-81
2023/11/02 16:31:56;;;;;;;4.97;2.47;;;12.10;99.90;;;;;;6271707;22;20178;-79
2023/11/02 16:34:50;;;;;;;4.93;2.60;;;12.00;99.90;;;;;;6156503;23;20191;-79
2023/11/02 16:38:20;;;;;;;4.63;2.50;;;12.00;99.90;;;;;;6083499;23;20287;-82
2023/11/02 16:41:34;;;;;;;4.40;2.47;;;11.90;99.90;;;;;;6088515;23;20248;-79
2023/11/02 16:44:07;;;;;;;7.33;2.90;;;11.90;99.90;;;;;;6057528;23;20500;-79
2023/11/02 16:47:13;;;;;;;5.60;2.73;;;11.80;99.90;;;;;;6029796;23;20206;-80
2023/11/02 16:50:32;;;;;;;5.87;3.10;;;11.60;99.90;;;;;;6042244;23;20162;-80
2023/11/02 16:53:06;;;;;;;6.80;3.50;;;11.70;99.90;;;;;;6039678;23;20178;-80
2023/11/02 16:59:56;;;;;;;9.30;4.50;;;11.60;99.90;;;;;;5912283;24;20315;-85
2023/11/02 17:03:37;;;;;;;10.00;4.37;;;11.60;99.90;;;;;;5988393;23;20196;-83
2023/11/02 17:10:52;;;;;;;10.67;4.87;;;11.10;99.90;;;;;;5962903;23;20213;-80
2023/11/02 17:13:31;;;;;;;8.20;5.00;;;11.20;99.90;;;;;;6193110;22;20372;-81
2023/11/02 17:20:10;;;;;;;9.87;5.33;;;11.10;99.90;;;;;;6234298;22;20234;-82
2023/11/02 17:28:44;;;;;;;10.57;5.10;;;11.10;99.90;;;;;;6198956;23;20222;-84
2023/11/02 17:32:26;;;;;;;;;;;;;;;;;;;;;
2023/11/02 19:15:35;;;;;;;9.27;4.50;;;11.10;99.90;;;;;;6207386;22;20167;-78
2023/11/02 19:18:25;;;;;;;9.63;4.47;;;11.10;99.90;;;;;;6293719;22;20194;-77
2023/11/02 19:21:00;;;;;;;8.60;4.23;;;11.10;99.90;;;;;;6177886;22;20199;-77
2023/11/02 19:23:28;;;;;;;6.33;4.07;;;11.20;99.90;;;;;;6280126;22;20612;-76
2023/11/02 19:26:21;;;;;;;7.77;3.97;;;11.20;99.90;;;;;;6175598;22;20159;-81
2023/11/02 19:29:04;;;;;;;9.00;4.13;;;11.50;99.90;;;;;;6267698;22;20170;-82
2023/11/02 19:31:44;;;;;;;8.57;4.00;;;11.20;99.90;;;;;;6179413;22;20167;-79
2023/11/02 19:34:24;;;;;;;8.63;3.70;;;11.20;99.90;;;;;;6178530;22;20496;-81
2023/11/02 19:37:45;;;;;;;7.27;3.70;;;11.30;99.90;;;;;;6257253;22;20176;-78
2023/11/02 19:40:31;;;;;;;8.97;3.93;;;11.00;99.90;;;;;;6179040;23;20278;-75
2023/11/02 19:43:41;;;;;;;9.07;4.17;;;11.20;99.90;;;;;;6275712;22;20227;-76
2023/11/02 19:46:19;;;;;;;8.43;3.53;;;11.10;99.90;;;;;;6174301;23;20168;-77
2023/11/02 19:48:53;;;;;;;10.10;3.80;;;11.30;99.90;;;;;;6172661;22;20343;-77
2023/11/02 19:51:36;;;;;;;6.57;3.80;;;11.10;99.90;;;;;;6178587;23;20163;-77
2023/11/02 20:01:08;;;;;;;8.83;3.73;;;11.20;99.90;;;;;;6193719;22;20755;-83
2023/11/02 20:04:51;;;;;;;7.67;3.80;;;11.40;99.90;;;;;;6168852;22;20179;-76
2023/11/02 20:08:00;;;;;;;8.03;4.00;;;11.30;99.90;;;;;;6130267;23;20298;-78
2023/11/02 20:11:07;;;;;;;6.70;3.70;;;11.30;99.90;;;;;;6168938;23;20553;-82
2023/11/02 20:14:13;;;;;;;7.20;3.40;;;11.20;99.90;;;;;;6166197;23;20630;-78
2023/11/02 20:17:11;;;;;;;6.57;3.97;;;11.20;99.90;;;;;;6173498;23;20697;-80
2023/11/02 20:21:01;;;;;;;5.87;3.47;;;11.20;99.90;;;;;;6156049;23;20182;-77
2023/11/02 20:24:10;;;;;;;6.23;3.60;;;11.30;99.90;;;;;;6178682;23;20527;-79
2023/11/02 20:27:58;;;;;;;7.50;3.90;;;11.30;99.90;;;;;;6095872;23;20321;-78
2023/11/02 20:37:32;;;;;;;7.07;3.93;;;11.40;99.90;;;;;;6321118;22;20207;-81
2023/11/02 20:40:22;;;;;;;7.00;3.60;;;11.50;99.90;;;;;;6302462;22;20261;-78
2023/11/02 20:50:05;;;;;;;6.20;3.60;;;11.60;99.90;;;;;;6376643;22;20309;-79
2023/11/02 20:52:50;;;;;;;5.33;3.17;;;11.60;99.90;;;;;;6393763;22;20159;-79
2023/11/02 20:56:07;;;;;;;9.80;3.60;;;11.80;99.90;;;;;;6372277;22;20620;-79
2023/11/02 20:58:43;;;;;;;6.73;3.30;;;11.70;99.90;;;;;;6370996;22;20174;-80
2023/11/02 21:01:29;;;;;;;9.30;3.57;;;11.60;99.90;;;;;;6366661;22;20197;-79
2023/11/02 21:04:18;;;;;;;7.03;3.47;;;11.70;99.90;;;;;;6337308;22;20232;-79
2023/11/02 21:06:46;;;;;;;7.20;3.53;;;11.70;99.90;;;;;;6369276;22;20214;-77
2023/11/02 21:09:32;;;;;;;7.67;3.93;;;11.70;99.90;;;;;;6369725;22;20191;-81
2023/11/02 21:12:06;;;;;;;7.83;3.90;;;11.70;99.90;;;;;;6341636;22;20167;-81
2023/11/02 21:14:51;;;;;;;6.47;4.00;;;11.60;99.90;;;;;;6369822;22;20242;-80
2023/11/02 21:17:33;;;;;;;7.03;4.10;;;11.60;99.90;;;;;;6268461;22;20599;-78
2023/11/02 21:20:12;;;;;;;9.67;4.60;;;11.50;99.90;;;;;;6280254;22;20271;-83
2023/11/02 21:23:23;;;;;;;9.37;4.20;;;11.40;99.90;;;;;;6132756;23;20184;-82
2023/11/02 21:26:04;;;;;;;7.07;4.10;;;11.30;99.90;;;;;;6127044;23;20254;-79
2023/11/02 21:28:39;;;;;;;7.13;4.10;;;11.30;99.90;;;;;;6128100;23;20165;-79
2023/11/02 21:31:16;;;;;;;8.20;3.90;;;11.20;99.90;;;;;;6150916;23;20180;-81
2023/11/02 21:34:02;;;;;;;8.53;4.30;;;11.30;99.90;;;;;;6100693;23;20230;-80
2023/11/02 21:36:33;;;;;;;8.57;4.00;;;11.20;99.90;;;;;;6148911;23;20176;-81
2023/11/02 21:39:05;;;;;;;9.63;4.13;;;11.20;99.90;;;;;;6152775;23;20175;-80
2023/11/02 21:41:36;;;;;;;8.43;4.30;;;11.20;99.90;;;;;;6012037;23;20226;-80
2023/11/02 21:44:34;;;;;;;9.53;4.10;;;11.10;99.90;;;;;;6030866;23;20178;-81
2023/11/02 21:47:40;;;;;;;7.43;4.00;;;11.30;99.90;;;;;;6028212;23;20181;-80
2023/11/02 21:50:24;;;;;;;8.93;3.90;;;11.10;99.90;;;;;;6034329;23;20202;-80
2023/11/02 21:53:08;;;;;;;7.77;3.90;;;11.10;99.90;;;;;;6007782;23;20179;-76
2023/11/02 21:56:05;;;;;;;7.47;4.37;;;11.10;99.90;;;;;;6036045;23;20702;-77
2023/11/02 21:59:03;;;;;;;;;;;;;;;;;;;;;
2023/11/02 22:05:58;;;;;;;8.27;3.83;;;11.00;99.90;;;;;;6149402;23;20208;-81
2023/11/02 22:08:32;;;;;;;6.53;3.83;;;11.20;99.90;;;;;;6092990;23;20181;-78
2023/11/02 22:11:25;;;;;;;9.87;4.07;;;11.30;99.90;;;;;;6081639;23;20166;-77
2023/11/02 22:14:23;;;;;;;9.80;3.97;;;11.40;99.90;;;;;;6066491;23;20668;-78
2023/11/02 22:17:18;;;;;;;6.10;3.67;;;11.30;99.90;;;;;;6001378;23;20283;-78
2023/11/02 22:20:26;;;;;;;7.63;3.83;;;11.60;99.90;;;;;;6003636;23;20188;-80
2023/11/02 22:23:33;;;;;;;6.43;3.67;;;11.40;99.90;;;;;;6002822;23;20616;-78
2023/11/02 22:29:49;;;;;;;7.23;3.80;;;11.20;99.90;;;;;;6007096;23;20158;-79
2023/11/02 22:33:28;;;;;;;6.07;3.70;;;11.50;99.90;;;;;;6027128;23;20615;-80
2023/11/02 22:36:27;;;;;;;8.33;4.00;;;11.50;99.90;;;;;;5984906;23;20230;-78
2023/11/02 22:39:51;;;;;;;8.70;4.43;;;11.50;99.90;;;;;;6025653;23;20533;-79
2023/11/02 22:42:34;;;;;;;8.57;3.63;;;11.60;99.90;;;;;;6177000;23;20198;-78
2023/11/02 22:49:11;;;;;;;7.77;3.87;;;11.60;99.90;;;;;;6007960;23;20201;-79
2023/11/02 22:51:39;;;;;;;6.80;3.90;;;11.80;99.90;;;;;;6180672;23;20258;-78
2023/11/02 22:54:07;;;;;;;8.10;3.97;;;11.60;99.90;;;;;;6180175;23;20174;-78
2023/11/02 22:56:53;;;;;;;6.37;3.60;;;11.70;99.90;;;;;;6179857;23;20222;-79
2023/11/02 22:59:33;;;;;;;8.50;3.87;;;11.70;99.90;;;;;;6180267;23;20244;-78
2023/11/02 23:02:35;;;;;;;7.93;3.60;;;11.70;99.90;;;;;;6168962;23;20278;-79
2023/11/02 23:05:08;;;;;;;8.13;4.10;;;11.90;99.90;;;;;;6029481;23;20513;-82
2023/11/02 23:07:49;;;;;;;6.37;3.57;;;11.70;99.90;;;;;;6030307;23;20266;-79
2023/11/02 23:10:26;;;;;;;6.33;3.23;;;11.70;99.90;;;;;;6025551;23;20254;-79
2023/11/02 23:13:00;;;;;;;7.77;3.50;;;11.50;99.90;;;;;;6029990;23;20170;-78
2023/11/02 23:16:11;;;;;;;5.90;3.33;;;11.70;99.90;;;;;;6030535;23;20573;-77
2023/11/02 23:18:45;;;;;;;7.50;3.40;;;11.70;99.90;;;;;;6031025;23;20209;-80
2023/11/02 23:21:18;;;;;;;6.53;3.70;;;11.80;99.90;;;;;;6030198;23;20264;-80
2023/11/02 23:23:55;;;;;;;6.47;3.50;;;11.80;99.90;;;;;;6179313;23;20619;-79
2023/11/02 23:26:31;;;;;;;6.63;3.50;;;11.80;99.90;;;;;;6178614;23;20172;-79
2023/11/02 23:29:19;;;;;;;5.40;3.43;;;11.80;99.90;;;;;;6143341;23;20553;-79